sensor_id;sensor_type;location;lat;lon;timestamp;pressure;altitude;pressure_sealevel;temperature;humidity
60725;BME280;59881;36.722;-4.462;2023-03-31T00:01:27;101669.81;;;19.28;40.64
60725;BME280;59881;36.722;-4.462;2023-03-31T00:03:54;101678.41;;;19.32;40.81
60725;BME280;59881;36.722;-4.462;2023-03-31T00:06:28;101674.91;;;19.31;40.66
60725;BME280;59881;36.722;-4.462;2023-03-31T00:08:54;101483.59;;;18.18;40.86
60725;BME280;59881;36.722;-4.462;2023-03-31T00:11:21;101658.63;;;18.40;40.92
60725;BME280;59881;36.722;-4.462;2023-03-31T00:13:47;101356.84;;;17.42;41.11
60725;BME280;59881;36.722;-4.462;2023-03-31T00:16:13;101667.41;;;19.25;41.06
60725;BME280;59881;36.722;-4.462;2023-03-31T00:18:39;101796.88;;;19.21;40.87
60725;BME280;59881;36.722;-4.462;2023-03-31T00:21:15;101651.19;;;19.17;40.94
60725;BME280;59881;36.722;-4.462;2023-03-31T00:24:00;101598.88;;;18.74;41.01
60725;BME280;59881;36.722;-4.462;2023-03-31T00:26:26;101085.94;;;15.66;41.02
60725;BME280;59881;36.722;-4.462;2023-03-31T00:28:52;101306.56;;;17.06;40.93
60725;BME280;59881;36.722;-4.462;2023-03-31T00:31:18;101652.06;;;19.17;41.09
60725;BME280;59881;36.722;-4.462;2023-03-31T00:33:44;101069.38;;;15.73;41.09
60725;BME280;59881;36.722;-4.462;2023-03-31T00:36:09;101056.84;;;15.64;41.00
60725;BME280;59881;36.722;-4.462;2023-03-31T00:38:35;101347.13;;;17.10;40.95
60725;BME280;59881;36.722;-4.462;2023-03-31T00:41:02;101241.66;;;15.89;41.11
60725;BME280;59881;36.722;-4.462;2023-03-31T00:43:32;101631.94;;;19.13;41.41
60725;BME280;59881;36.722;-4.462;2023-03-31T00:46:19;101184.25;;;16.42;41.24
60725;BME280;59881;36.722;-4.462;2023-03-31T00:48:51;101480.00;;;18.29;41.67
60725;BME280;59881;36.722;-4.462;2023-03-31T00:51:19;101629.84;;;19.17;41.45
60725;BME280;59881;36.722;-4.462;2023-03-31T00:53:51;101254.25;;;16.95;41.78
60725;BME280;59881;36.722;-4.462;2023-03-31T00:56:25;101339.63;;;17.04;41.87
60725;BME280;59881;36.722;-4.462;2023-03-31T00:58:55;101073.50;;;15.66;41.54
60725;BME280;59881;36.722;-4.462;2023-03-31T01:01:24;101085.06;;;15.22;42.00
60725;BME280;59881;36.722;-4.462;2023-03-31T01:03:51;101614.50;;;19.09;41.71
60725;BME280;59881;36.722;-4.462;2023-03-31T01:06:17;101291.78;;;17.13;41.38
60725;BME280;59881;36.722;-4.462;2023-03-31T01:08:46;101607.03;;;19.03;42.02
60725;BME280;59881;36.722;-4.462;2023-03-31T01:11:14;101219.69;;;15.99;41.88
60725;BME280;59881;36.722;-4.462;2023-03-31T01:13:43;101345.63;;;16.73;41.98
60725;BME280;59881;36.722;-4.462;2023-03-31T01:16:12;101362.19;;;17.42;42.18
60725;BME280;59881;36.722;-4.462;2023-03-31T01:18:38;100801.44;;;13.98;42.09
60725;BME280;59881;36.722;-4.462;2023-03-31T01:41:47;101218.84;;;17.26;40.44
60725;BME280;59881;36.722;-4.462;2023-03-31T01:44:39;101569.31;;;19.47;40.03
60725;BME280;59881;36.722;-4.462;2023-03-31T01:47:32;101321.84;;;17.25;40.13
60725;BME280;59881;36.722;-4.462;2023-03-31T01:50:10;101582.41;;;19.50;40.07
60725;BME280;59881;36.722;-4.462;2023-03-31T01:52:55;100885.75;;;15.25;40.16
60725;BME280;59881;36.722;-4.462;2023-03-31T01:56:03;101194.44;;;17.21;40.42
60725;BME280;59881;36.722;-4.462;2023-03-31T02:01:09;101007.63;;;15.92;40.83
60725;BME280;59881;36.722;-4.462;2023-03-31T02:03:45;101564.22;;;19.24;40.98
60725;BME280;59881;36.722;-4.462;2023-03-31T02:06:17;101302.56;;;17.64;41.16
60725;BME280;59881;36.722;-4.462;2023-03-31T02:08:48;101490.09;;;18.66;41.44
60725;BME280;59881;36.722;-4.462;2023-03-31T02:11:16;101235.88;;;16.92;41.53
60725;BME280;59881;36.722;-4.462;2023-03-31T02:13:45;101552.50;;;19.06;41.84
60725;BME280;59881;36.722;-4.462;2023-03-31T02:16:17;101549.81;;;19.06;41.58
60725;BME280;59881;36.722;-4.462;2023-03-31T02:18:47;101656.34;;;18.99;42.02
60725;BME280;59881;36.722;-4.462;2023-03-31T02:21:15;100600.53;;;13.04;42.05
60725;BME280;59881;36.722;-4.462;2023-03-31T02:23:41;101580.31;;;18.93;42.25
60725;BME280;59881;36.722;-4.462;2023-03-31T02:26:09;101537.00;;;18.90;42.22
60725;BME280;59881;36.722;-4.462;2023-03-31T02:28:36;100948.50;;;15.26;42.23
60725;BME280;59881;36.722;-4.462;2023-03-31T02:33:34;101334.69;;;16.99;42.19
60725;BME280;59881;36.722;-4.462;2023-03-31T02:36:00;101380.81;;;17.21;41.67
60725;BME280;59881;36.722;-4.462;2023-03-31T02:38:26;100644.88;;;13.23;41.72
60725;BME280;59881;36.722;-4.462;2023-03-31T02:40:52;101372.66;;;17.54;41.79
60725;BME280;59881;36.722;-4.462;2023-03-31T02:43:18;101521.78;;;18.80;41.70
60725;BME280;59881;36.722;-4.462;2023-03-31T02:45:46;101523.34;;;18.83;41.60
60725;BME280;59881;36.722;-4.462;2023-03-31T02:48:26;101516.47;;;18.80;41.48
60725;BME280;59881;36.722;-4.462;2023-03-31T03:04:15;101512.03;;;18.70;41.47
60725;BME280;59881;36.722;-4.462;2023-03-31T03:07:02;101472.00;;;18.70;41.72
60725;BME280;59881;36.722;-4.462;2023-03-31T03:09:43;101189.28;;;16.45;41.43
60725;BME280;59881;36.722;-4.462;2023-03-31T03:12:17;101468.63;;;18.68;41.58
60725;BME280;59881;36.722;-4.462;2023-03-31T03:19:54;100990.91;;;15.81;41.54
60725;BME280;59881;36.722;-4.462;2023-03-31T03:22:21;100441.69;;;12.29;41.25
60725;BME280;59881;36.722;-4.462;2023-03-31T03:24:46;101057.53;;;15.45;41.22
60725;BME280;59881;36.722;-4.462;2023-03-31T03:27:12;101455.34;;;18.77;41.21
60725;BME280;59881;36.722;-4.462;2023-03-31T03:29:37;101482.03;;;18.77;41.21
60725;BME280;59881;36.722;-4.462;2023-03-31T03:32:03;101027.56;;;15.55;41.17
60725;BME280;59881;36.722;-4.462;2023-03-31T03:34:29;101450.06;;;18.66;41.20
60725;BME280;59881;36.722;-4.462;2023-03-31T03:36:55;101486.59;;;18.66;41.41
60725;BME280;59881;36.722;-4.462;2023-03-31T03:39:20;101451.88;;;18.66;41.32
60725;BME280;59881;36.722;-4.462;2023-03-31T03:41:46;101078.00;;;16.40;40.89
60725;BME280;59881;36.722;-4.462;2023-03-31T03:44:11;100809.50;;;14.74;41.05
60725;BME280;59881;36.722;-4.462;2023-03-31T03:46:37;101088.63;;;16.40;41.34
60725;BME280;59881;36.722;-4.462;2023-03-31T03:49:02;101209.88;;;16.96;41.66
60725;BME280;59881;36.722;-4.462;2023-03-31T03:51:28;101267.53;;;17.37;41.47
60725;BME280;59881;36.722;-4.462;2023-03-31T03:53:53;101127.09;;;16.57;41.51
60725;BME280;59881;36.722;-4.462;2023-03-31T03:56:19;101558.03;;;18.52;41.55
60725;BME280;59881;36.722;-4.462;2023-03-31T03:58:46;101364.94;;;18.03;41.61
60725;BME280;59881;36.722;-4.462;2023-03-31T04:01:12;101439.59;;;18.44;41.58
60725;BME280;59881;36.722;-4.462;2023-03-31T04:03:39;101478.59;;;18.35;41.70
60725;BME280;59881;36.722;-4.462;2023-03-31T04:06:05;101320.09;;;17.14;41.63
60725;BME280;59881;36.722;-4.462;2023-03-31T04:08:31;101448.50;;;18.23;41.70
60725;BME280;59881;36.722;-4.462;2023-03-31T04:10:56;100685.25;;;12.21;41.50
60725;BME280;59881;36.722;-4.462;2023-03-31T04:13:22;101323.97;;;17.52;41.23
60725;BME280;59881;36.722;-4.462;2023-03-31T04:15:47;101356.47;;;17.46;41.11
60725;BME280;59881;36.722;-4.462;2023-03-31T04:18:13;100939.47;;;15.17;41.18
60725;BME280;59881;36.722;-4.462;2023-03-31T04:20:52;100879.91;;;14.66;41.89
60725;BME280;59881;36.722;-4.462;2023-03-31T04:23:34;101274.25;;;16.90;41.70
60725;BME280;59881;36.722;-4.462;2023-03-31T04:26:09;101562.34;;;18.02;41.58
60725;BME280;59881;36.722;-4.462;2023-03-31T04:28:36;101534.00;;;18.01;41.91
60725;BME280;59881;36.722;-4.462;2023-03-31T04:31:04;101305.63;;;17.07;41.69
60725;BME280;59881;36.722;-4.462;2023-03-31T04:33:33;101450.84;;;17.86;41.66
60725;BME280;59881;36.722;-4.462;2023-03-31T04:36:06;101320.38;;;16.24;41.71
60725;BME280;59881;36.722;-4.462;2023-03-31T04:38:48;101449.00;;;17.86;41.54
60725;BME280;59881;36.722;-4.462;2023-03-31T04:41:19;101292.00;;;17.01;41.29
60725;BME280;59881;36.722;-4.462;2023-03-31T04:43:45;101470.72;;;17.82;40.50
60725;BME280;59881;36.722;-4.462;2023-03-31T04:46:11;101111.41;;;15.80;40.43
60725;BME280;59881;36.722;-4.462;2023-03-31T04:48:37;100797.00;;;13.76;40.37
60725;BME280;59881;36.722;-4.462;2023-03-31T04:51:03;101043.59;;;14.87;40.71
60725;BME280;59881;36.722;-4.462;2023-03-31T04:53:29;101207.69;;;16.69;40.88
60725;BME280;59881;36.722;-4.462;2023-03-31T04:55:54;101025.44;;;15.37;41.45
60725;BME280;59881;36.722;-4.462;2023-03-31T04:58:20;100442.63;;;12.16;41.37
60725;BME280;59881;36.722;-4.462;2023-03-31T05:00:46;101206.66;;;15.84;41.51
60725;BME280;59881;36.722;-4.462;2023-03-31T05:03:11;100889.75;;;14.87;41.58
60725;BME280;59881;36.722;-4.462;2023-03-31T05:05:37;101264.31;;;17.13;41.43
60725;BME280;59881;36.722;-4.462;2023-03-31T05:08:03;101473.66;;;18.30;41.74
60725;BME280;59881;36.722;-4.462;2023-03-31T05:10:29;101467.50;;;18.30;42.03
60725;BME280;59881;36.722;-4.462;2023-03-31T05:12:55;101332.31;;;17.38;42.27
60725;BME280;59881;36.722;-4.462;2023-03-31T05:15:21;100157.72;;;10.19;42.30
60725;BME280;59881;36.722;-4.462;2023-03-31T05:17:48;101576.53;;;18.23;42.27
60725;BME280;59881;36.722;-4.462;2023-03-31T05:20:15;101490.47;;;18.21;42.67
60725;BME280;59881;36.722;-4.462;2023-03-31T05:22:41;101502.38;;;18.17;43.02
60725;BME280;59881;36.722;-4.462;2023-03-31T05:25:08;100833.59;;;14.04;43.07
60725;BME280;59881;36.722;-4.462;2023-03-31T05:27:34;101536.31;;;18.15;43.16
60725;BME280;59881;36.722;-4.462;2023-03-31T05:30:01;101497.19;;;18.15;43.35
60725;BME280;59881;36.722;-4.462;2023-03-31T05:32:27;100854.84;;;13.47;43.56
60725;BME280;59881;36.722;-4.462;2023-03-31T05:34:53;101496.00;;;18.08;43.73
60725;BME280;59881;36.722;-4.462;2023-03-31T05:37:25;101356.38;;;17.15;43.96
60725;BME280;59881;36.722;-4.462;2023-03-31T05:39:51;101493.69;;;17.94;44.44
60725;BME280;59881;36.722;-4.462;2023-03-31T05:42:17;101559.50;;;17.93;44.40
60725;BME280;59881;36.722;-4.462;2023-03-31T05:44:43;101301.66;;;16.69;44.33
60725;BME280;59881;36.722;-4.462;2023-03-31T05:47:09;101363.63;;;16.92;44.44
60725;BME280;59881;36.722;-4.462;2023-03-31T05:49:35;101108.44;;;15.39;44.36
60725;BME280;59881;36.722;-4.462;2023-03-31T05:52:01;100918.50;;;13.08;44.23
60725;BME280;59881;36.722;-4.462;2023-03-31T05:54:26;101616.22;;;17.84;44.19
60725;BME280;59881;36.722;-4.462;2023-03-31T05:56:52;101404.59;;;16.46;44.07
60725;BME280;59881;36.722;-4.462;2023-03-31T05:59:18;101526.19;;;17.88;44.09
60725;BME280;59881;36.722;-4.462;2023-03-31T06:01:43;101547.50;;;17.88;43.74
60725;BME280;59881;36.722;-4.462;2023-03-31T06:04:09;100932.13;;;12.91;44.32
60725;BME280;59881;36.722;-4.462;2023-03-31T06:06:34;101012.75;;;14.63;44.11
60725;BME280;59881;36.722;-4.462;2023-03-31T06:09:03;101388.56;;;16.91;44.14
60725;BME280;59881;36.722;-4.462;2023-03-31T06:11:29;101249.75;;;15.43;44.11
60725;BME280;59881;36.722;-4.462;2023-03-31T06:13:54;100915.59;;;14.06;44.19
60725;BME280;59881;36.722;-4.462;2023-03-31T06:16:20;101545.44;;;17.91;44.22
60725;BME280;59881;36.722;-4.462;2023-03-31T06:18:46;100989.38;;;14.57;44.19
60725;BME280;59881;36.722;-4.462;2023-03-31T06:21:13;101153.06;;;15.68;44.13
60725;BME280;59881;36.722;-4.462;2023-03-31T06:23:40;101131.81;;;15.68;43.89
60725;BME280;59881;36.722;-4.462;2023-03-31T06:26:11;101557.94;;;18.12;43.83
60725;BME280;59881;36.722;-4.462;2023-03-31T06:28:37;101539.22;;;18.33;43.55
60725;BME280;59881;36.722;-4.462;2023-03-31T06:31:10;101315.06;;;17.00;43.47
60725;BME280;59881;36.722;-4.462;2023-03-31T06:33:40;101536.34;;;18.46;43.29
60725;BME280;59881;36.722;-4.462;2023-03-31T06:36:07;101537.66;;;18.51;43.02
60725;BME280;59881;36.722;-4.462;2023-03-31T06:38:34;101537.25;;;18.56;43.00
60725;BME280;59881;36.722;-4.462;2023-03-31T06:41:00;101536.75;;;18.62;42.84
60725;BME280;59881;36.722;-4.462;2023-03-31T06:43:26;101606.88;;;18.53;42.54
60725;BME280;59881;36.722;-4.462;2023-03-31T06:45:53;101456.00;;;18.29;42.38
60725;BME280;59881;36.722;-4.462;2023-03-31T06:48:18;101541.09;;;18.94;42.17
60725;BME280;59881;36.722;-4.462;2023-03-31T06:50:44;101183.97;;;16.98;41.71
60725;BME280;59881;36.722;-4.462;2023-03-31T06:53:10;101512.91;;;19.40;40.88
60725;BME280;59881;36.722;-4.462;2023-03-31T06:55:36;101542.88;;;20.12;40.15
60725;BME280;59881;36.722;-4.462;2023-03-31T06:58:03;101544.94;;;20.37;39.42
60725;BME280;59881;36.722;-4.462;2023-03-31T07:00:28;101446.19;;;19.97;39.29
60725;BME280;59881;36.722;-4.462;2023-03-31T07:02:54;100984.25;;;17.48;38.54
60725;BME280;59881;36.722;-4.462;2023-03-31T07:05:20;101260.53;;;19.72;37.75
60725;BME280;59881;36.722;-4.462;2023-03-31T07:07:55;101527.72;;;21.68;37.00
60725;BME280;59881;36.722;-4.462;2023-03-31T07:10:22;101618.28;;;22.10;36.10
60725;BME280;59881;36.722;-4.462;2023-03-31T07:12:48;101164.81;;;20.57;35.12
60725;BME280;59881;36.722;-4.462;2023-03-31T07:15:14;101511.84;;;23.63;33.52
60725;BME280;59881;36.722;-4.462;2023-03-31T07:17:40;101348.34;;;23.34;32.49
60725;BME280;59881;36.722;-4.462;2023-03-31T07:20:10;101477.50;;;24.70;31.31
60725;BME280;59881;36.722;-4.462;2023-03-31T07:22:43;101547.78;;;25.31;30.96
60725;BME280;59881;36.722;-4.462;2023-03-31T07:25:10;101551.28;;;25.40;30.72
60725;BME280;59881;36.722;-4.462;2023-03-31T07:27:36;101443.22;;;25.10;29.96
60725;BME280;59881;36.722;-4.462;2023-03-31T07:30:06;101508.22;;;25.93;29.08
60725;BME280;59881;36.722;-4.462;2023-03-31T07:32:32;101421.91;;;26.14;27.74
60725;BME280;59881;36.722;-4.462;2023-03-31T07:34:58;101602.91;;;27.76;27.38
60725;BME280;59881;36.722;-4.462;2023-03-31T07:37:23;101593.59;;;28.57;26.55
60725;BME280;59881;36.722;-4.462;2023-03-31T07:39:49;101538.91;;;28.88;26.37
60725;BME280;59881;36.722;-4.462;2023-03-31T07:42:15;101315.25;;;27.04;26.39
60725;BME280;59881;36.722;-4.462;2023-03-31T07:44:41;101243.91;;;26.77;26.21
60725;BME280;59881;36.722;-4.462;2023-03-31T07:47:06;101514.59;;;28.66;26.08
60725;BME280;59881;36.722;-4.462;2023-03-31T07:49:33;101569.63;;;29.83;24.95
60725;BME280;59881;36.722;-4.462;2023-03-31T07:52:00;101601.78;;;30.06;24.69
60725;BME280;59881;36.722;-4.462;2023-03-31T07:54:26;101576.50;;;30.26;24.14
60725;BME280;59881;36.722;-4.462;2023-03-31T07:56:51;101565.56;;;30.59;23.95
60725;BME280;59881;36.722;-4.462;2023-03-31T07:59:17;101260.38;;;29.28;23.52
60725;BME280;59881;36.722;-4.462;2023-03-31T08:01:43;101431.75;;;30.50;22.89
60725;BME280;59881;36.722;-4.462;2023-03-31T08:04:12;101422.16;;;30.93;22.70
60725;BME280;59881;36.722;-4.462;2023-03-31T08:06:38;101556.84;;;32.23;22.27
60725;BME280;59881;36.722;-4.462;2023-03-31T08:09:04;101554.16;;;32.78;21.60
60725;BME280;59881;36.722;-4.462;2023-03-31T08:11:32;101471.28;;;32.91;21.10
60725;BME280;59881;36.722;-4.462;2023-03-31T08:13:58;101204.34;;;31.80;20.48
60725;BME280;59881;36.722;-4.462;2023-03-31T08:16:23;101568.91;;;35.14;19.54
60725;BME280;59881;36.722;-4.462;2023-03-31T08:18:49;101002.56;;;32.17;18.97
60725;BME280;59881;36.722;-4.462;2023-03-31T08:21:14;101562.09;;;35.79;18.13
60725;BME280;59881;36.722;-4.462;2023-03-31T08:23:40;101590.00;;;36.27;17.75
60725;BME280;59881;36.722;-4.462;2023-03-31T08:26:14;101563.22;;;37.00;17.40
60725;BME280;59881;36.722;-4.462;2023-03-31T08:28:42;101544.72;;;38.20;16.13
60725;BME280;59881;36.722;-4.462;2023-03-31T08:31:08;101438.63;;;38.49;15.54
60725;BME280;59881;36.722;-4.462;2023-03-31T08:54:16;101591.44;;;38.15;14.75
60725;BME280;59881;36.722;-4.462;2023-03-31T08:56:47;101592.03;;;38.64;14.56
60725;BME280;59881;36.722;-4.462;2023-03-31T08:59:26;101546.22;;;40.68;12.91
60725;BME280;59881;36.722;-4.462;2023-03-31T09:02:17;101579.25;;;40.19;12.45
60725;BME280;59881;36.722;-4.462;2023-03-31T09:04:59;101546.22;;;41.18;11.45
60725;BME280;59881;36.722;-4.462;2023-03-31T09:10:54;101342.19;;;40.22;10.93
60725;BME280;59881;36.722;-4.462;2023-03-31T09:16:20;101563.03;;;39.45;11.65
60725;BME280;59881;36.722;-4.462;2023-03-31T09:18:47;101574.28;;;39.13;11.72
60725;BME280;59881;36.722;-4.462;2023-03-31T09:21:40;101597.28;;;38.71;11.87
60725;BME280;59881;36.722;-4.462;2023-03-31T09:24:18;101592.81;;;38.12;12.27
60725;BME280;59881;36.722;-4.462;2023-03-31T09:32:01;101304.59;;;38.65;12.63
60725;BME280;59881;36.722;-4.462;2023-03-31T09:34:34;101546.44;;;40.87;12.06
60725;BME280;59881;36.722;-4.462;2023-03-31T09:37:00;101549.13;;;41.95;11.54
60725;BME280;59881;36.722;-4.462;2023-03-31T09:39:26;101468.00;;;42.67;10.86
60725;BME280;59881;36.722;-4.462;2023-03-31T09:41:52;101308.72;;;42.97;10.46
60725;BME280;59881;36.722;-4.462;2023-03-31T09:49:54;101578.91;;;45.94;8.81
60725;BME280;59881;36.722;-4.462;2023-03-31T09:54:53;101588.88;;;46.84;8.75
60725;BME280;59881;36.722;-4.462;2023-03-31T09:57:28;101596.91;;;47.03;8.52
60725;BME280;59881;36.722;-4.462;2023-03-31T10:00:14;101596.91;;;47.29;7.68
60725;BME280;59881;36.722;-4.462;2023-03-31T10:02:55;101586.19;;;47.66;6.80
60725;BME280;59881;36.722;-4.462;2023-03-31T10:07:50;101366.47;;;46.98;5.52
60725;BME280;59881;36.722;-4.462;2023-03-31T10:10:31;101591.56;;;47.80;5.57
60725;BME280;59881;36.722;-4.462;2023-03-31T10:12:58;101501.75;;;45.77;5.57
60725;BME280;59881;36.722;-4.462;2023-03-31T10:15:27;101339.03;;;43.91;6.67
60725;BME280;59881;36.722;-4.462;2023-03-31T10:17:53;101353.34;;;44.20;6.58
60725;BME280;59881;36.722;-4.462;2023-03-31T10:20:38;101573.56;;;46.38;5.85
60725;BME280;59881;36.722;-4.462;2023-03-31T10:23:23;101544.91;;;46.55;5.59
60725;BME280;59881;36.722;-4.462;2023-03-31T10:25:51;101576.81;;;47.71;4.92
60725;BME280;59881;36.722;-4.462;2023-03-31T10:28:18;101571.66;;;47.99;4.58
60725;BME280;59881;36.722;-4.462;2023-03-31T10:30:50;101323.22;;;46.92;4.46
60725;BME280;59881;36.722;-4.462;2023-03-31T10:33:21;100759.50;;;43.93;4.13
60725;BME280;59881;36.722;-4.462;2023-03-31T10:35:57;101576.16;;;48.72;3.89
60725;BME280;59881;36.722;-4.462;2023-03-31T10:38:33;101562.84;;;49.10;3.65
60725;BME280;59881;36.722;-4.462;2023-03-31T10:41:00;100896.09;;;45.64;3.53
60725;BME280;59881;36.722;-4.462;2023-03-31T10:43:28;101563.38;;;49.70;3.19
60725;BME280;59881;36.722;-4.462;2023-03-31T10:45:57;101566.69;;;50.09;3.15
60725;BME280;59881;36.722;-4.462;2023-03-31T10:48:34;101504.19;;;49.47;3.49
60725;BME280;59881;36.722;-4.462;2023-03-31T10:51:17;101506.78;;;47.55;3.58
60725;BME280;59881;36.722;-4.462;2023-03-31T10:53:50;101555.47;;;43.11;4.79
60725;BME280;59881;36.722;-4.462;2023-03-31T11:01:51;101564.56;;;34.26;8.62
60725;BME280;59881;36.722;-4.462;2023-03-31T11:16:09;101546.59;;;32.62;10.20
60725;BME280;59881;36.722;-4.462;2023-03-31T11:21:43;101531.03;;;32.25;10.83
60725;BME280;59881;36.722;-4.462;2023-03-31T11:30:07;101531.19;;;31.87;11.45
60725;BME280;59881;36.722;-4.462;2023-03-31T11:41:04;101240.16;;;28.91;13.63
60725;BME280;59881;36.722;-4.462;2023-03-31T11:43:49;101523.97;;;31.04;14.30
60725;BME280;59881;36.722;-4.462;2023-03-31T11:46:26;101244.09;;;29.28;14.23
60725;BME280;59881;36.722;-4.462;2023-03-31T11:48:56;101274.78;;;28.96;14.75
60725;BME280;59881;36.722;-4.462;2023-03-31T11:51:27;101521.78;;;30.87;15.02
60725;BME280;59881;36.722;-4.462;2023-03-31T11:53:55;101564.69;;;30.79;15.65
60725;BME280;59881;36.722;-4.462;2023-03-31T11:56:25;101516.50;;;30.92;15.36
60725;BME280;59881;36.722;-4.462;2023-03-31T11:58:56;101260.41;;;28.95;16.24
60725;BME280;59881;36.722;-4.462;2023-03-31T12:05:04;101319.44;;;29.33;16.76
60725;BME280;59881;36.722;-4.462;2023-03-31T12:09:57;101082.16;;;28.51;17.29
60725;BME280;59881;36.722;-4.462;2023-03-31T12:12:37;101500.53;;;31.09;17.33
60725;BME280;59881;36.722;-4.462;2023-03-31T12:17:29;101478.34;;;31.38;17.62
60725;BME280;59881;36.722;-4.462;2023-03-31T12:19:59;101483.81;;;31.63;17.79
60725;BME280;59881;36.722;-4.462;2023-03-31T12:22:36;101477.19;;;31.77;17.94
60725;BME280;59881;36.722;-4.462;2023-03-31T12:25:03;101485.13;;;31.79;18.41
60725;BME280;59881;36.722;-4.462;2023-03-31T12:27:39;101475.25;;;31.84;17.95
60725;BME280;59881;36.722;-4.462;2023-03-31T12:32:38;101466.00;;;31.85;18.37
60725;BME280;59881;36.722;-4.462;2023-03-31T12:35:26;101474.50;;;31.95;18.39
60725;BME280;59881;36.722;-4.462;2023-03-31T12:45:25;101473.41;;;31.78;18.64
60725;BME280;59881;36.722;-4.462;2023-03-31T12:52:54;101468.91;;;31.65;19.31
60725;BME280;59881;36.722;-4.462;2023-03-31T12:57:47;101555.97;;;31.79;19.36
60725;BME280;59881;36.722;-4.462;2023-03-31T13:00:23;101450.78;;;31.78;19.62
60725;BME280;59881;36.722;-4.462;2023-03-31T13:02:49;101442.78;;;31.83;19.29
60725;BME280;59881;36.722;-4.462;2023-03-31T13:07:59;101438.22;;;31.76;18.92
60725;BME280;59881;36.722;-4.462;2023-03-31T13:10:25;101436.94;;;31.79;18.92
60725;BME280;59881;36.722;-4.462;2023-03-31T13:12:59;101427.56;;;31.75;18.74
60725;BME280;59881;36.722;-4.462;2023-03-31T13:15:25;101433.66;;;31.70;18.68
60725;BME280;59881;36.722;-4.462;2023-03-31T13:17:56;101432.59;;;31.53;18.78
60725;BME280;59881;36.722;-4.462;2023-03-31T13:20:35;101435.47;;;31.33;18.62
60725;BME280;59881;36.722;-4.462;2023-03-31T13:35:50;101406.72;;;30.87;19.73
60725;BME280;59881;36.722;-4.462;2023-03-31T13:51:18;101385.69;;;30.62;19.73
60725;BME280;59881;36.722;-4.462;2023-03-31T14:03:46;101365.53;;;30.38;20.16
60725;BME280;59881;36.722;-4.462;2023-03-31T14:09:03;101359.50;;;30.36;20.06
60725;BME280;59881;36.722;-4.462;2023-03-31T14:11:30;101355.25;;;30.47;20.45
60725;BME280;59881;36.722;-4.462;2023-03-31T14:16:33;101335.44;;;30.33;20.66
60725;BME280;59881;36.722;-4.462;2023-03-31T14:19:49;101334.31;;;30.09;20.81
60725;BME280;59881;36.722;-4.462;2023-03-31T14:22:09;101329.97;;;29.95;21.03
60725;BME280;59881;36.722;-4.462;2023-03-31T14:37:09;101315.00;;;29.65;21.93
60725;BME280;59881;36.722;-4.462;2023-03-31T14:39:39;101312.13;;;29.47;22.06
60725;BME280;59881;36.722;-4.462;2023-03-31T14:42:12;101314.22;;;29.45;22.29
60725;BME280;59881;36.722;-4.462;2023-03-31T14:44:39;101314.59;;;29.62;21.87
60725;BME280;59881;36.722;-4.462;2023-03-31T14:47:11;101311.44;;;29.78;22.00
60725;BME280;59881;36.722;-4.462;2023-03-31T14:49:37;101305.72;;;29.93;22.36
60725;BME280;59881;36.722;-4.462;2023-03-31T14:52:21;101306.06;;;30.10;22.17
60725;BME280;59881;36.722;-4.462;2023-03-31T14:54:51;101303.94;;;30.19;22.36
60725;BME280;59881;36.722;-4.462;2023-03-31T14:57:17;101299.34;;;30.19;22.33
60725;BME280;59881;36.722;-4.462;2023-03-31T14:59:45;101292.00;;;30.20;21.93
60725;BME280;59881;36.722;-4.462;2023-03-31T15:02:16;101293.03;;;30.25;21.99
60725;BME280;59881;36.722;-4.462;2023-03-31T15:04:42;101280.28;;;30.26;22.27
60725;BME280;59881;36.722;-4.462;2023-03-31T15:07:10;101291.59;;;30.23;22.20
60725;BME280;59881;36.722;-4.462;2023-03-31T15:09:36;101290.59;;;30.10;22.46
60725;BME280;59881;36.722;-4.462;2023-03-31T15:12:03;101283.28;;;30.11;22.04
60725;BME280;59881;36.722;-4.462;2023-03-31T15:14:29;101282.88;;;30.14;22.75
60725;BME280;59881;36.722;-4.462;2023-03-31T15:16:56;101283.97;;;30.00;22.63
60725;BME280;59881;36.722;-4.462;2023-03-31T15:19:22;101278.81;;;29.91;23.08
60725;BME280;59881;36.722;-4.462;2023-03-31T15:22:01;101287.81;;;29.85;23.21
60725;BME280;59881;36.722;-4.462;2023-03-31T15:24:30;101280.97;;;29.76;23.34
60725;BME280;59881;36.722;-4.462;2023-03-31T15:26:57;101280.34;;;29.61;23.46
60725;BME280;59881;36.722;-4.462;2023-03-31T15:31:56;101277.91;;;29.33;24.00
60725;BME280;59881;36.722;-4.462;2023-03-31T15:34:26;101286.91;;;29.26;24.35
60725;BME280;59881;36.722;-4.462;2023-03-31T15:36:54;101276.47;;;29.23;24.41
60725;BME280;59881;36.722;-4.462;2023-03-31T15:39:20;101278.56;;;29.15;24.31
60725;BME280;59881;36.722;-4.462;2023-03-31T15:41:46;101275.66;;;29.09;24.36
60725;BME280;59881;36.722;-4.462;2023-03-31T15:47:00;101269.16;;;28.97;24.78
60725;BME280;59881;36.722;-4.462;2023-03-31T15:49:27;101273.13;;;29.01;24.83
60725;BME280;59881;36.722;-4.462;2023-03-31T15:51:53;101277.94;;;28.99;24.95
60725;BME280;59881;36.722;-4.462;2023-03-31T15:54:36;101270.84;;;29.05;24.72
60725;BME280;59881;36.722;-4.462;2023-03-31T15:57:04;101268.56;;;29.15;24.78
60725;BME280;59881;36.722;-4.462;2023-03-31T15:59:30;101266.66;;;29.16;25.03
60725;BME280;59881;36.722;-4.462;2023-03-31T16:01:56;101261.22;;;29.22;24.98
60725;BME280;59881;36.722;-4.462;2023-03-31T16:04:24;101261.03;;;29.24;24.46
60725;BME280;59881;36.722;-4.462;2023-03-31T16:06:54;101254.78;;;29.23;24.58
60725;BME280;59881;36.722;-4.462;2023-03-31T16:09:24;101276.50;;;29.17;24.60
60725;BME280;59881;36.722;-4.462;2023-03-31T16:11:52;101280.03;;;29.11;24.93
60725;BME280;59881;36.722;-4.462;2023-03-31T16:14:23;101279.19;;;29.03;24.94
60725;BME280;59881;36.722;-4.462;2023-03-31T16:17:00;101273.56;;;28.98;24.94
60725;BME280;59881;36.722;-4.462;2023-03-31T16:19:27;101275.44;;;28.91;24.85
60725;BME280;59881;36.722;-4.462;2023-03-31T16:21:56;101286.06;;;28.86;24.96